Time;durP1;ratioP1;P1;durP2;ratioP2;P2;SDS_P1;SDS_P2;PMS_P1;PMS_P2;Temp;Humidity;BMP_temperature;BMP_pressure;BME280_temperature;BME280_humidity;BME280_pressure;Samples;Min_cycle;Max_cycle;Signal;HPM_P1;HPM_P2
2022/12/30 00:01:09;;;;;;;13.13;3.47;;;8.90;95.60;;;;;;4999335;28;20460;-80
2022/12/30 00:03:37;;;;;;;9.87;2.40;;;8.90;95.50;;;;;;4998194;28;20444;-80
2022/12/30 00:06:07;;;;;;;15.50;3.60;;;8.90;95.40;;;;;;4997787;28;20483;-79
2022/12/30 00:11:19;;;;;;;13.37;2.90;;;8.80;95.80;;;;;;4978141;28;20443;-79
2022/12/30 00:33:25;;;;;;;7.53;2.30;;;8.80;96.00;;;;;;4973552;28;20535;-79
2022/12/30 00:35:52;;;;;;;9.43;3.90;;;8.80;95.70;;;;;;4998339;28;20463;-79
2022/12/30 00:38:20;;;;;;;10.17;2.10;;;8.80;95.60;;;;;;4998461;28;20432;-80
2022/12/30 00:43:32;;;;;;;12.10;2.43;;;8.80;95.60;;;;;;4998301;28;20487;-80
2022/12/30 00:45:59;;;;;;;13.67;4.73;;;8.80;95.60;;;;;;4998470;28;20999;-79
2022/12/30 00:56:42;;;;;;;10.53;2.83;;;8.90;95.60;;;;;;5000216;28;20438;-79
2022/12/30 00:59:09;;;;;;;10.17;2.70;;;8.90;95.40;;;;;;4999624;28;20459;-79
2022/12/30 01:01:36;;;;;;;11.50;2.53;;;8.80;95.30;;;;;;4999325;28;20436;-79
2022/12/30 01:04:03;;;;;;;10.20;3.33;;;8.80;95.60;;;;;;4999597;28;20460;-79
2022/12/30 01:06:30;;;;;;;9.63;2.20;;;8.80;95.60;;;;;;4999055;28;20462;-79
2022/12/30 01:08:59;;;;;;;11.10;2.97;;;8.80;95.50;;;;;;4990323;28;20462;-80
2022/12/30 01:11:26;;;;;;;16.40;2.80;;;8.80;95.50;;;;;;4978592;28;20485;-80
2022/12/30 01:13:52;;;;;;;14.37;3.00;;;8.80;95.40;;;;;;4979160;28;20456;-79
2022/12/30 01:16:20;;;;;;;10.63;2.40;;;8.80;95.30;;;;;;4978656;28;20476;-79
2022/12/30 01:18:48;;;;;;;7.83;2.17;;;8.80;95.40;;;;;;4979355;28;20444;-79
2022/12/30 01:21:15;;;;;;;9.43;2.60;;;8.80;95.50;;;;;;4978882;28;20450;-80
2022/12/30 01:23:43;;;;;;;5.33;2.47;;;8.70;95.40;;;;;;4978623;28;20459;-79
2022/12/30 01:26:12;;;;;;;13.13;2.43;;;8.70;95.60;;;;;;4978688;28;20487;-79
2022/12/30 01:28:39;;;;;;;10.67;3.40;;;8.80;95.80;;;;;;4982893;28;20453;-80
2022/12/30 01:31:08;;;;;;;13.53;3.00;;;8.80;95.60;;;;;;4989543;28;20497;-79
2022/12/30 01:33:36;;;;;;;16.53;3.13;;;8.80;95.60;;;;;;4989656;28;20538;-79
2022/12/30 01:36:03;;;;;;;12.27;2.50;;;8.80;95.50;;;;;;4984629;28;20488;-79
2022/12/30 01:38:31;;;;;;;17.43;3.30;;;8.70;95.50;;;;;;4978897;28;20452;-80
2022/12/30 01:40:58;;;;;;;15.57;2.70;;;8.70;95.40;;;;;;4978196;28;20467;-79
2022/12/30 01:43:47;;;;;;;14.20;2.20;;;8.70;95.50;;;;;;4978761;28;20449;-79
2022/12/30 01:46:20;;;;;;;11.57;2.00;;;8.70;95.50;;;;;;4979063;28;20599;-79
2022/12/30 01:48:48;;;;;;;11.27;2.57;;;8.70;95.50;;;;;;4979222;28;20447;-79
2022/12/30 01:51:19;;;;;;;12.23;3.00;;;8.70;95.60;;;;;;4979926;28;21037;-80
2022/12/30 01:53:50;;;;;;;13.07;2.73;;;8.70;95.60;;;;;;4986368;28;20944;-79
2022/12/30 01:56:22;;;;;;;16.03;2.60;;;8.70;95.60;;;;;;4999711;28;20487;-79
2022/12/30 01:58:54;;;;;;;14.97;3.20;;;8.70;95.60;;;;;;5000235;28;20415;-80
2022/12/30 02:01:21;;;;;;;11.30;3.00;;;8.70;95.60;;;;;;4999813;28;20443;-79
2022/12/30 02:03:56;;;;;;;10.83;2.27;;;8.70;95.50;;;;;;5000173;28;20453;-79
2022/12/30 02:06:28;;;;;;;8.63;2.77;;;8.80;95.60;;;;;;4999278;28;20840;-79
2022/12/30 02:08:55;;;;;;;13.57;2.90;;;8.70;95.50;;;;;;4998336;28;20416;-80
2022/12/30 02:11:22;;;;;;;11.70;2.70;;;8.70;95.50;;;;;;4998826;28;20483;-79
2022/12/30 02:13:51;;;;;;;8.97;2.07;;;8.70;95.70;;;;;;4998737;28;20447;-79
2022/12/30 02:16:40;;;;;;;10.23;1.97;;;8.60;95.70;;;;;;4998549;28;20481;-79
2022/12/30 02:19:47;;;;;;;14.10;3.00;;;8.60;95.70;;;;;;4981511;28;20459;-79
2022/12/30 02:22:23;;;;;;;13.10;3.23;;;8.60;95.80;;;;;;4980063;28;20448;-79
2022/12/30 02:25:34;;;;;;;12.37;3.33;;;8.50;95.90;;;;;;4981791;28;20478;-79
2022/12/30 02:28:36;;;;;;;12.97;2.50;;;8.50;96.00;;;;;;4977813;28;20455;-79
2022/12/30 02:31:17;;;;;;;8.33;2.03;;;8.50;96.10;;;;;;4979160;28;20479;-79
2022/12/30 02:33:49;;;;;;;7.77;2.47;;;8.40;96.30;;;;;;4977656;28;20472;-79
2022/12/30 02:36:22;;;;;;;13.43;2.83;;;8.40;96.30;;;;;;4978008;28;21017;-79
2022/12/30 02:39:12;;;;;;;13.40;3.27;;;8.40;96.40;;;;;;4978203;28;20443;-79
2022/12/30 02:45:08;;;;;;;14.73;2.60;;;8.40;96.40;;;;;;5000734;28;20497;-79
2022/12/30 02:47:40;;;;;;;13.80;2.43;;;8.40;96.40;;;;;;4990950;28;20439;-79
2022/12/30 02:52:58;;;;;;;6.10;2.20;;;8.30;96.40;;;;;;4986524;28;20846;-79
2022/12/30 02:55:25;;;;;;;5.37;1.63;;;8.30;96.40;;;;;;4986821;28;20490;-79
2022/12/30 02:57:52;;;;;;;13.10;2.30;;;8.30;96.50;;;;;;4985692;28;20450;-79
2022/12/30 03:06:28;;;;;;;11.40;2.10;;;8.30;96.50;;;;;;4986616;28;20488;-79
2022/12/30 03:09:03;;;;;;;8.23;2.90;;;8.30;96.60;;;;;;5005999;28;20460;-79
2022/12/30 03:11:37;;;;;;;8.97;2.37;;;8.30;96.50;;;;;;5005911;28;20478;-79
2022/12/30 03:14:08;;;;;;;12.20;2.40;;;8.30;96.50;;;;;;5006270;28;20461;-79
2022/12/30 03:16:39;;;;;;;13.77;3.60;;;8.30;96.60;;;;;;5006179;28;20431;-79
2022/12/30 03:19:11;;;;;;;9.30;2.63;;;8.30;96.60;;;;;;5005873;28;20435;-78
2022/12/30 03:21:41;;;;;;;12.67;2.60;;;8.20;96.60;;;;;;5005815;28;20446;-79
2022/12/30 03:27:04;;;;;;;7.57;3.23;;;8.30;96.90;;;;;;4993147;28;20530;-79
2022/12/30 03:29:35;;;;;;;6.10;2.03;;;8.30;96.90;;;;;;4994058;28;20486;-80
2022/12/30 03:32:03;;;;;;;15.50;2.83;;;8.30;97.00;;;;;;4995186;28;20497;-80
2022/12/30 03:34:32;;;;;;;6.97;2.23;;;8.30;97.00;;;;;;4983208;28;20470;-79
2022/12/30 03:37:03;;;;;;;9.83;2.57;;;8.20;97.00;;;;;;4987566;28;20458;-80
2022/12/30 03:39:35;;;;;;;7.03;2.10;;;8.30;97.20;;;;;;5000615;28;20439;-80
2022/12/30 03:42:04;;;;;;;12.90;3.33;;;8.20;97.20;;;;;;4999758;28;20427;-80
2022/12/30 03:44:33;;;;;;;10.00;3.67;;;8.20;97.30;;;;;;5000183;28;20554;-80
2022/12/30 03:47:00;;;;;;;11.63;2.37;;;8.20;97.40;;;;;;5000125;28;20454;-80
2022/12/30 03:49:27;;;;;;;7.13;2.63;;;8.20;97.50;;;;;;4998832;28;20455;-80
2022/12/30 03:51:55;;;;;;;12.73;3.47;;;8.10;97.50;;;;;;4999320;28;20492;-80
2022/12/30 03:54:22;;;;;;;9.17;2.83;;;8.10;97.60;;;;;;4998384;28;20483;-79
2022/12/30 03:56:49;;;;;;;10.80;2.90;;;8.20;97.70;;;;;;4999150;28;20454;-80
2022/12/30 03:59:16;;;;;;;6.70;1.60;;;8.10;98.20;;;;;;4998206;28;20435;-80
2022/12/30 04:01:43;;;;;;;8.30;2.20;;;8.10;98.00;;;;;;4998619;28;20457;-80
2022/12/30 04:04:10;;;;;;;5.60;2.47;;;8.20;98.00;;;;;;4997871;28;20438;-80
2022/12/30 04:06:36;;;;;;;10.80;2.30;;;8.20;98.10;;;;;;4997604;28;20823;-79
2022/12/30 04:09:05;;;;;;;12.60;3.70;;;8.20;98.20;;;;;;4985064;28;20807;-80
2022/12/30 04:11:33;;;;;;;13.13;2.57;;;8.20;98.20;;;;;;4978530;28;20489;-80
2022/12/30 04:14:00;;;;;;;7.93;2.20;;;8.20;98.20;;;;;;4983779;28;20473;-80
2022/12/30 04:16:27;;;;;;;13.77;2.40;;;8.20;98.30;;;;;;4997364;28;20451;-80
2022/12/30 04:18:54;;;;;;;9.87;2.60;;;8.20;98.30;;;;;;4994121;28;20462;-80
2022/12/30 04:21:21;;;;;;;6.97;2.30;;;8.20;98.30;;;;;;4978460;28;20459;-80
2022/12/30 04:23:48;;;;;;;8.73;2.00;;;8.20;98.20;;;;;;4978128;28;20978;-80
2022/12/30 04:26:16;;;;;;;12.20;2.50;;;8.20;98.30;;;;;;4978065;28;20487;-80
2022/12/30 04:28:43;;;;;;;13.93;3.10;;;8.20;98.20;;;;;;4977399;28;20451;-80
2022/12/30 04:31:10;;;;;;;12.73;2.47;;;8.30;98.10;;;;;;4977407;28;20487;-80
2022/12/30 04:33:37;;;;;;;9.40;2.60;;;8.30;98.10;;;;;;4986612;28;20490;-80
2022/12/30 04:36:04;;;;;;;11.87;2.67;;;8.30;98.00;;;;;;4996584;28;20497;-80
2022/12/30 04:38:31;;;;;;;23.60;2.87;;;8.30;98.00;;;;;;4989310;28;20460;-80
2022/12/30 04:40:58;;;;;;;10.73;2.63;;;8.30;98.00;;;;;;4978361;28;20824;-80
2022/12/30 04:43:26;;;;;;;7.40;2.50;;;8.30;98.10;;;;;;4978613;28;20466;-80
2022/12/30 04:45:53;;;;;;;14.53;2.80;;;8.20;98.00;;;;;;4981324;28;20471;-80
2022/12/30 04:48:20;;;;;;;10.00;2.30;;;8.20;98.10;;;;;;4996864;28;20446;-80
2022/12/30 04:50:49;;;;;;;13.43;2.93;;;8.20;98.00;;;;;;4986774;28;20488;-80
2022/12/30 04:53:15;;;;;;;11.83;2.20;;;8.20;98.10;;;;;;4977957;28;20474;-79
2022/12/30 04:55:42;;;;;;;8.00;2.30;;;8.20;98.00;;;;;;4989730;28;20508;-79
2022/12/30 04:58:10;;;;;;;5.17;2.00;;;8.20;97.90;;;;;;4995945;28;20446;-79
2022/12/30 05:00:38;;;;;;;10.90;2.47;;;8.20;97.70;;;;;;4991068;28;20466;-80
2022/12/30 05:03:05;;;;;;;14.67;2.13;;;8.10;97.60;;;;;;4999443;28;20462;-80
2022/12/30 05:05:31;;;;;;;11.17;2.20;;;8.10;97.60;;;;;;4994245;28;20479;-80
2022/12/30 05:07:58;;;;;;;6.90;2.03;;;8.10;97.90;;;;;;4980604;28;20443;-80
2022/12/30 05:10:25;;;;;;;10.63;2.43;;;8.10;97.70;;;;;;4980650;28;20466;-80
2022/12/30 05:12:52;;;;;;;10.63;3.30;;;8.10;97.80;;;;;;4980260;28;20455;-80
2022/12/30 05:15:18;;;;;;;6.97;1.80;;;8.10;97.70;;;;;;4980324;28;20841;-80
2022/12/30 05:17:47;;;;;;;8.23;2.07;;;8.10;97.70;;;;;;4980129;28;20440;-79
2022/12/30 05:20:14;;;;;;;9.60;2.50;;;8.00;97.80;;;;;;4980712;28;20458;-80
2022/12/30 05:22:40;;;;;;;6.70;2.87;;;8.00;97.70;;;;;;4982422;28;20458;-79
2022/12/30 05:27:52;;;;;;;8.00;3.00;;;7.90;97.60;;;;;;4999798;28;20505;-80
2022/12/30 05:30:19;;;;;;;6.00;2.40;;;7.80;97.80;;;;;;5000467;28;20795;-80
2022/12/30 05:32:47;;;;;;;15.83;3.20;;;7.80;97.90;;;;;;4986305;28;20838;-79
2022/12/30 05:35:14;;;;;;;9.90;2.73;;;7.80;97.90;;;;;;4980540;28;20820;-80
2022/12/30 05:37:41;;;;;;;11.43;2.50;;;7.70;97.80;;;;;;4979861;28;20481;-80
2022/12/30 05:40:09;;;;;;;18.70;2.73;;;7.70;98.00;;;;;;4979452;28;20485;-80
2022/12/30 05:42:36;;;;;;;15.17;3.80;;;7.70;98.30;;;;;;4979705;28;20447;-80
2022/12/30 05:45:04;;;;;;;8.23;2.23;;;7.60;98.20;;;;;;4979542;28;20485;-80
2022/12/30 05:47:31;;;;;;;6.03;2.93;;;7.60;98.40;;;;;;4980428;28;20458;-80
2022/12/30 05:49:59;;;;;;;6.63;2.13;;;7.60;98.50;;;;;;4997176;28;20453;-80
2022/12/30 05:52:27;;;;;;;4.77;2.30;;;7.60;98.50;;;;;;4999290;28;20490;-80
2022/12/30 05:54:54;;;;;;;5.83;2.33;;;7.60;98.60;;;;;;4999042;28;21001;-80
2022/12/30 05:57:21;;;;;;;10.50;2.67;;;7.60;98.60;;;;;;4981627;28;20460;-80
2022/12/30 05:59:48;;;;;;;9.40;2.67;;;7.60;98.70;;;;;;4979368;28;20464;-80
2022/12/30 06:02:15;;;;;;;14.83;2.93;;;7.60;98.70;;;;;;4978587;28;20450;-80
2022/12/30 06:04:42;;;;;;;6.47;2.50;;;7.60;98.80;;;;;;4979218;28;20485;-80
2022/12/30 06:07:10;;;;;;;7.33;2.20;;;7.60;98.90;;;;;;4978550;28;20461;-80
2022/12/30 06:09:37;;;;;;;6.60;2.17;;;7.50;99.00;;;;;;4980009;28;20466;-80
2022/12/30 06:12:04;;;;;;;9.73;2.40;;;7.50;99.10;;;;;;4979517;28;20482;-79
2022/12/30 06:14:30;;;;;;;7.20;2.50;;;7.50;99.00;;;;;;4978493;28;20475;-80
2022/12/30 06:16:57;;;;;;;6.27;2.20;;;7.50;99.10;;;;;;4994014;28;20469;-80
2022/12/30 06:19:24;;;;;;;12.10;2.13;;;7.60;98.80;;;;;;4998873;28;20460;-80
2022/12/30 06:21:51;;;;;;;4.70;2.23;;;7.60;98.60;;;;;;4998821;28;20460;-80
2022/12/30 06:24:19;;;;;;;14.80;3.03;;;7.60;98.60;;;;;;4999028;28;20460;-80
2022/12/30 06:26:46;;;;;;;6.60;2.17;;;7.60;98.20;;;;;;4999685;28;20456;-80
2022/12/30 06:29:12;;;;;;;12.30;2.50;;;7.60;98.40;;;;;;5006104;28;20460;-80
2022/12/30 06:31:39;;;;;;;7.40;2.60;;;7.50;98.40;;;;;;5007673;28;20485;-80
2022/12/30 06:34:06;;;;;;;6.93;1.77;;;7.50;98.60;;;;;;4987125;28;20442;-80
2022/12/30 06:36:33;;;;;;;8.37;2.30;;;7.40;98.70;;;;;;5008474;28;20460;-79
2022/12/30 06:39:00;;;;;;;8.03;2.47;;;7.40;98.90;;;;;;5000942;28;20449;-80
2022/12/30 06:41:28;;;;;;;8.77;2.10;;;7.50;99.00;;;;;;5001726;28;20452;-79
2022/12/30 06:43:55;;;;;;;6.93;2.23;;;7.40;99.10;;;;;;5000954;28;20442;-80
2022/12/30 06:46:21;;;;;;;11.77;2.00;;;7.50;99.10;;;;;;5000742;28;20845;-80
2022/12/30 06:48:50;;;;;;;5.80;1.93;;;7.50;99.00;;;;;;5000782;28;20457;-80
2022/12/30 06:51:17;;;;;;;5.80;2.07;;;7.50;99.10;;;;;;5000156;28;20532;-80
2022/12/30 06:53:44;;;;;;;6.50;1.80;;;7.50;99.00;;;;;;4999121;28;20453;-79
2022/12/30 06:56:10;;;;;;;6.63;1.77;;;7.50;98.90;;;;;;4998402;28;20478;-80
2022/12/30 06:58:39;;;;;;;12.90;2.27;;;7.50;98.90;;;;;;4998482;28;20450;-80
2022/12/30 07:01:06;;;;;;;7.83;2.20;;;7.50;98.70;;;;;;4997759;28;20452;-80
2022/12/30 07:03:32;;;;;;;10.50;2.33;;;7.60;98.60;;;;;;4998672;28;20479;-80
2022/12/30 07:05:59;;;;;;;6.10;1.90;;;7.60;98.50;;;;;;4998259;28;20468;-80
2022/12/30 07:08:26;;;;;;;9.40;2.20;;;7.50;98.50;;;;;;4994803;28;20461;-80
2022/12/30 07:10:54;;;;;;;6.87;1.60;;;7.50;98.60;;;;;;4978465;28;20514;-80
2022/12/30 07:13:21;;;;;;;10.77;2.07;;;7.50;98.90;;;;;;4994376;28;20493;-80
2022/12/30 07:15:49;;;;;;;6.60;1.63;;;7.50;98.90;;;;;;4982600;28;20480;-80
2022/12/30 07:18:16;;;;;;;9.27;1.70;;;7.50;98.70;;;;;;4978189;28;20842;-80
2022/12/30 07:20:43;;;;;;;6.27;1.73;;;7.50;98.80;;;;;;4978670;28;20431;-80
2022/12/30 07:23:10;;;;;;;4.83;2.10;;;7.50;99.00;;;;;;4986289;28;20493;-79
2022/12/30 07:25:38;;;;;;;6.43;1.80;;;7.50;98.90;;;;;;4997681;28;20531;-79
2022/12/30 07:28:05;;;;;;;2.90;1.80;;;7.50;98.90;;;;;;4997734;28;20824;-79
2022/12/30 07:30:33;;;;;;;8.80;1.90;;;7.50;98.90;;;;;;4997591;28;20457;-80
2022/12/30 07:33:01;;;;;;;5.17;1.37;;;7.60;98.90;;;;;;4997525;28;20496;-79
2022/12/30 07:35:29;;;;;;;7.33;2.23;;;7.60;99.10;;;;;;4983640;28;20482;-80
2022/12/30 07:37:56;;;;;;;6.10;2.00;;;7.60;98.70;;;;;;4978545;28;20459;-80
2022/12/30 07:40:23;;;;;;;7.33;2.13;;;7.60;98.60;;;;;;4978196;28;20445;-79
2022/12/30 07:42:49;;;;;;;3.30;1.77;;;7.60;98.70;;;;;;4978201;28;20456;-80
2022/12/30 07:45:16;;;;;;;4.30;1.53;;;7.60;98.80;;;;;;4978691;28;20482;-80
2022/12/30 07:47:43;;;;;;;8.57;2.00;;;7.60;98.80;;;;;;4978298;28;20435;-80
2022/12/30 07:50:12;;;;;;;4.40;1.60;;;7.60;98.70;;;;;;4978719;28;20500;-80
2022/12/30 07:52:39;;;;;;;7.73;1.63;;;7.60;98.90;;;;;;4990313;28;20587;-80
2022/12/30 07:55:07;;;;;;;5.70;1.70;;;7.60;99.00;;;;;;4984431;28;20481;-80
2022/12/30 07:57:34;;;;;;;5.67;1.60;;;7.60;99.10;;;;;;4977781;28;20447;-80
2022/12/30 08:00:01;;;;;;;9.63;1.50;;;7.70;99.20;;;;;;4978462;28;20798;-80
2022/12/30 08:02:28;;;;;;;4.03;1.47;;;7.70;99.20;;;;;;4978437;28;20508;-80
2022/12/30 08:04:55;;;;;;;3.17;1.63;;;7.70;99.20;;;;;;4977944;28;20467;-80
2022/12/30 08:07:23;;;;;;;4.30;1.23;;;7.80;99.20;;;;;;4978375;28;20445;-80
2022/12/30 08:09:50;;;;;;;5.00;1.90;;;7.80;99.20;;;;;;4976608;28;20456;-79
2022/12/30 08:12:16;;;;;;;2.23;1.40;;;7.80;99.30;;;;;;4980580;28;20477;-79
2022/12/30 08:14:43;;;;;;;4.90;1.80;;;7.80;99.20;;;;;;4976146;28;20504;-80
2022/12/30 08:17:10;;;;;;;4.60;1.40;;;7.90;99.20;;;;;;4974201;28;20453;-77
2022/12/30 08:19:38;;;;;;;5.53;2.03;;;7.90;99.20;;;;;;4976080;28;20445;-79
2022/12/30 08:22:05;;;;;;;4.00;1.40;;;8.00;99.20;;;;;;4985668;28;20803;-79
2022/12/30 08:24:34;;;;;;;7.37;2.07;;;8.00;99.10;;;;;;4988839;28;20487;-79
2022/12/30 08:27:00;;;;;;;4.37;1.93;;;8.10;99.10;;;;;;4983882;28;20439;-79
2022/12/30 08:29:27;;;;;;;6.10;3.00;;;8.10;99.00;;;;;;4976038;28;20900;-80
2022/12/30 08:31:57;;;;;;;4.30;1.50;;;8.10;99.00;;;;;;4975569;28;20465;-80
2022/12/30 08:34:24;;;;;;;9.73;1.80;;;8.10;99.00;;;;;;4975178;28;20478;-79
2022/12/30 08:36:51;;;;;;;3.00;1.90;;;8.20;99.00;;;;;;4975378;28;20502;-79
2022/12/30 08:39:20;;;;;;;7.90;1.53;;;8.20;99.20;;;;;;4984148;28;20455;-77
2022/12/30 08:41:48;;;;;;;7.03;1.70;;;8.20;98.90;;;;;;4976318;28;20555;-78
2022/12/30 08:44:15;;;;;;;3.17;1.33;;;8.20;98.80;;;;;;4975438;28;20435;-78
2022/12/30 08:46:42;;;;;;;8.17;1.70;;;8.30;99.00;;;;;;4975777;28;20456;-78
2022/12/30 08:49:10;;;;;;;7.20;2.07;;;8.30;98.90;;;;;;4982906;28;20469;-79
2022/12/30 08:51:37;;;;;;;2.80;1.30;;;8.40;98.80;;;;;;4993657;28;20497;-78
2022/12/30 08:54:05;;;;;;;4.93;1.83;;;8.40;98.70;;;;;;4991865;28;20474;-79
2022/12/30 08:56:34;;;;;;;3.80;1.30;;;8.50;98.70;;;;;;4994739;28;20513;-79
2022/12/30 08:59:02;;;;;;;4.87;1.80;;;8.50;98.50;;;;;;4994439;28;20969;-79
2022/12/30 09:01:32;;;;;;;4.63;1.40;;;8.60;98.50;;;;;;4994819;28;20439;-79
2022/12/30 09:04:00;;;;;;;3.03;1.60;;;8.60;98.40;;;;;;4994379;28;20939;-79
2022/12/30 09:06:29;;;;;;;4.50;1.80;;;8.70;98.50;;;;;;4994744;28;20546;-79
2022/12/30 09:08:59;;;;;;;2.57;1.03;;;8.70;98.50;;;;;;4994557;28;20812;-79
2022/12/30 09:11:29;;;;;;;4.40;1.60;;;8.70;98.40;;;;;;4994308;28;20469;-78
2022/12/30 09:13:56;;;;;;;3.70;1.40;;;8.80;98.40;;;;;;4995476;28;20439;-79
2022/12/30 09:16:25;;;;;;;7.03;1.80;;;8.80;98.40;;;;;;4994734;28;20476;-79
2022/12/30 09:18:53;;;;;;;5.07;1.57;;;8.90;98.20;;;;;;4994382;28;20448;-79
2022/12/30 09:21:22;;;;;;;5.53;1.60;;;9.00;98.20;;;;;;4994247;28;20454;-78
2022/12/30 09:23:49;;;;;;;3.70;1.20;;;9.00;97.90;;;;;;4994259;28;20451;-79
2022/12/30 09:26:18;;;;;;;3.40;2.03;;;9.10;97.70;;;;;;4991825;28;20479;-79
2022/12/30 09:28:45;;;;;;;5.13;1.60;;;9.20;97.70;;;;;;4979866;28;20472;-79
2022/12/30 09:31:12;;;;;;;5.37;1.17;;;9.20;97.40;;;;;;4974437;28;20436;-79
2022/12/30 09:33:40;;;;;;;6.33;1.40;;;9.30;97.30;;;;;;4979487;28;20507;-78
2022/12/30 09:36:08;;;;;;;5.30;1.50;;;9.40;97.20;;;;;;4994200;28;20478;-79
2022/12/30 09:38:35;;;;;;;2.27;1.20;;;9.40;96.90;;;;;;4994923;28;20435;-79
2022/12/30 09:41:06;;;;;;;3.27;1.30;;;9.50;96.80;;;;;;4994458;28;20459;-79
2022/12/30 09:43:38;;;;;;;7.53;1.33;;;9.60;96.40;;;;;;4994471;28;20440;-79
2022/12/30 09:46:16;;;;;;;3.90;1.33;;;9.70;96.10;;;;;;4994450;28;20483;-79
2022/12/30 09:48:50;;;;;;;4.27;1.20;;;9.70;96.30;;;;;;4997232;28;20444;-78
2022/12/30 09:51:22;;;;;;;2.47;1.43;;;9.80;95.90;;;;;;4998860;28;20554;-79
2022/12/30 09:53:53;;;;;;;3.70;1.57;;;9.90;95.60;;;;;;4997912;28;20501;-79
2022/12/30 09:56:25;;;;;;;3.93;1.30;;;9.90;95.40;;;;;;4983591;28;20491;-78
2022/12/30 09:58:55;;;;;;;3.20;1.10;;;10.10;94.80;;;;;;4978646;28;20453;-79
2022/12/30 10:01:27;;;;;;;7.30;1.37;;;10.10;94.50;;;;;;4988116;28;20478;-79
2022/12/30 10:03:58;;;;;;;5.33;2.00;;;10.20;94.40;;;;;;4997314;28;20442;-78
2022/12/30 10:06:29;;;;;;;5.40;1.20;;;10.40;94.00;;;;;;4990422;28;20500;-78
2022/12/30 10:09:34;;;;;;;4.30;2.13;;;10.40;93.70;;;;;;4977486;28;20441;-79
2022/12/30 10:12:17;;;;;;;4.37;1.17;;;10.50;93.60;;;;;;4975708;28;20454;-79
2022/12/30 10:14:53;;;;;;;6.33;1.17;;;10.50;93.40;;;;;;4977850;28;20553;-79
2022/12/30 10:17:35;;;;;;;8.70;1.60;;;10.60;93.20;;;;;;4977210;28;20929;-79
2022/12/30 10:20:16;;;;;;;4.67;1.20;;;10.70;93.00;;;;;;4978207;28;20417;-79
2022/12/30 10:22:49;;;;;;;5.20;1.57;;;10.70;92.70;;;;;;4978472;28;20444;-78
2022/12/30 10:25:24;;;;;;;6.43;1.60;;;10.70;92.70;;;;;;4977335;28;20522;-79
2022/12/30 10:27:55;;;;;;;6.10;1.83;;;10.70;92.70;;;;;;4977758;28;20992;-79
2022/12/30 10:30:24;;;;;;;4.83;1.10;;;10.80;92.60;;;;;;4978949;28;20452;-78
2022/12/30 10:32:54;;;;;;;4.90;1.53;;;10.80;92.50;;;;;;4981290;28;20847;-78
2022/12/30 10:35:23;;;;;;;4.67;1.60;;;10.80;92.50;;;;;;4976785;28;20475;-79
2022/12/30 10:37:57;;;;;;;2.73;1.40;;;10.80;92.40;;;;;;4989229;28;20452;-78
2022/12/30 10:40:33;;;;;;;4.90;1.13;;;10.80;92.60;;;;;;4996900;28;20960;-79
2022/12/30 10:43:19;;;;;;;3.47;1.23;;;10.80;92.70;;;;;;4982128;28;20455;-79
2022/12/30 10:45:56;;;;;;;2.23;1.20;;;10.70;92.50;;;;;;4977371;28;20476;-78
2022/12/30 10:48:44;;;;;;;6.10;1.20;;;10.70;92.60;;;;;;4990486;28;20458;-80
2022/12/30 10:51:15;;;;;;;5.43;1.33;;;10.70;92.70;;;;;;4978839;28;20471;-78
2022/12/30 10:53:45;;;;;;;3.13;1.23;;;10.80;92.60;;;;;;4976458;28;20483;-78
2022/12/30 10:56:20;;;;;;;2.50;1.27;;;10.70;92.40;;;;;;4976002;28;20482;-78
2022/12/30 10:58:47;;;;;;;4.10;1.67;;;10.70;92.60;;;;;;4975313;28;20448;-79
2022/12/30 11:01:18;;;;;;;3.77;1.17;;;10.60;92.70;;;;;;4975904;28;20949;-79
2022/12/30 11:03:49;;;;;;;3.03;1.33;;;10.60;92.70;;;;;;4976217;28;20433;-78
2022/12/30 11:06:21;;;;;;;4.50;1.20;;;10.60;92.80;;;;;;4977412;28;20981;-78
2022/12/30 11:08:48;;;;;;;3.80;1.10;;;10.60;92.90;;;;;;4978137;28;20460;-79
2022/12/30 11:11:16;;;;;;;5.23;1.43;;;10.60;92.70;;;;;;4995336;28;20437;-79
2022/12/30 11:16:40;;;;;;;9.17;2.50;;;10.50;92.70;;;;;;4978204;28;20416;-79
2022/12/30 11:19:19;;;;;;;9.30;1.30;;;10.50;92.80;;;;;;4995896;28;20437;-79
2022/12/30 11:21:47;;;;;;;3.07;1.20;;;10.50;92.80;;;;;;4994052;28;20444;-78
2022/12/30 11:24:16;;;;;;;2.17;1.20;;;10.50;92.70;;;;;;4995194;28;20430;-78
2022/12/30 11:26:48;;;;;;;6.70;2.33;;;10.50;92.80;;;;;;4995339;28;20439;-78
2022/12/30 11:29:17;;;;;;;3.77;1.17;;;10.50;92.70;;;;;;4977757;28;20435;-78
2022/12/30 11:31:47;;;;;;;2.70;1.47;;;10.50;92.70;;;;;;4976687;28;20510;-78
2022/12/30 11:34:18;;;;;;;5.20;1.20;;;10.50;92.60;;;;;;4975491;28;20487;-79
2022/12/30 11:36:47;;;;;;;2.50;1.57;;;10.50;92.70;;;;;;4979193;28;20441;-78
2022/12/30 11:39:31;;;;;;;4.23;1.27;;;10.50;92.90;;;;;;4978642;28;20466;-80
2022/12/30 11:42:00;;;;;;;4.23;1.80;;;10.50;92.80;;;;;;4977793;28;20434;-79
2022/12/30 11:44:29;;;;;;;3.60;1.03;;;10.50;92.60;;;;;;4976983;28;20914;-79
2022/12/30 11:46:59;;;;;;;1.60;1.07;;;10.50;92.70;;;;;;4976137;28;20492;-79
2022/12/30 11:49:33;;;;;;;2.67;0.83;;;10.50;92.50;;;;;;4975492;28;20562;-79
2022/12/30 11:52:12;;;;;;;3.30;1.40;;;10.50;92.70;;;;;;4984581;28;20459;-78
2022/12/30 11:54:43;;;;;;;4.67;2.10;;;10.50;92.70;;;;;;4988718;28;20499;-79
2022/12/30 11:57:21;;;;;;;5.93;1.40;;;10.50;92.70;;;;;;4984094;28;20464;-79
2022/12/30 11:59:50;;;;;;;3.03;1.03;;;10.50;92.60;;;;;;4976967;28;20444;-79
2022/12/30 12:02:22;;;;;;;3.90;1.83;;;10.50;92.50;;;;;;4977944;28;20455;-79
2022/12/30 12:04:49;;;;;;;2.90;1.97;;;10.50;92.50;;;;;;4978257;28;20487;-78
2022/12/30 12:07:26;;;;;;;5.57;1.37;;;10.50;92.50;;;;;;4978050;28;20457;-79
2022/12/30 12:10:04;;;;;;;4.17;1.00;;;10.50;92.50;;;;;;4977554;28;20986;-80
2022/12/30 12:12:37;;;;;;;4.57;1.50;;;10.50;92.70;;;;;;4978564;28;20438;-78
2022/12/30 12:15:19;;;;;;;5.57;1.20;;;10.50;92.60;;;;;;4977956;28;20476;-79
2022/12/30 12:17:49;;;;;;;4.40;1.00;;;10.50;92.50;;;;;;4975857;28;20444;-78
2022/12/30 12:20:24;;;;;;;9.00;1.50;;;10.60;92.50;;;;;;4975592;28;20436;-78
2022/12/30 12:23:23;;;;;;;4.70;1.23;;;10.60;92.40;;;;;;4975623;28;20440;-78
2022/12/30 12:26:02;;;;;;;7.43;1.40;;;10.60;92.60;;;;;;4970428;28;20488;-78
2022/12/30 12:28:31;;;;;;;3.63;1.40;;;10.60;92.50;;;;;;4975565;28;20798;-78
2022/12/30 12:31:32;;;;;;;4.10;2.07;;;10.60;92.50;;;;;;4975347;28;20468;-77
2022/12/30 12:34:05;;;;;;;8.13;4.00;;;10.60;92.50;;;;;;4974984;28;20496;-78
2022/12/30 12:36:40;;;;;;;4.70;2.17;;;10.60;92.50;;;;;;4975315;28;20440;-78
2022/12/30 12:39:12;;;;;;;8.60;2.13;;;10.70;92.50;;;;;;4975526;28;20905;-78
2022/12/30 12:42:00;;;;;;;5.87;2.00;;;10.60;92.60;;;;;;4975769;28;20495;-78
2022/12/30 12:44:59;;;;;;;3.90;1.80;;;10.60;92.70;;;;;;4975142;28;20457;-78
2022/12/30 12:47:46;;;;;;;4.50;2.20;;;10.50;92.70;;;;;;4975814;28;20464;-78
2022/12/30 12:50:27;;;;;;;6.60;1.83;;;10.50;92.90;;;;;;4975848;28;20520;-79
2022/12/30 12:53:09;;;;;;;2.50;1.20;;;10.50;93.00;;;;;;4974935;28;20463;-78
2022/12/30 12:56:08;;;;;;;5.20;1.87;;;10.50;93.40;;;;;;4975592;28;20476;-78
2022/12/30 12:58:45;;;;;;;12.80;2.00;;;10.50;94.10;;;;;;4975502;28;20930;-78
2022/12/30 13:01:19;;;;;;;4.97;1.53;;;10.50;94.70;;;;;;4975125;28;20436;-78
2022/12/30 13:03:58;;;;;;;3.10;1.40;;;10.40;94.90;;;;;;4974829;28;20431;-78
2022/12/30 13:06:33;;;;;;;4.10;1.47;;;10.40;95.30;;;;;;4974724;28;20465;-78
2022/12/30 13:09:22;;;;;;;5.17;2.07;;;10.40;95.70;;;;;;4974560;28;20486;-77
2022/12/30 13:11:56;;;;;;;4.20;1.80;;;10.40;96.20;;;;;;4974585;28;20447;-77
2022/12/30 13:14:33;;;;;;;3.17;1.30;;;10.40;96.60;;;;;;4976920;28;20496;-78
2022/12/30 13:17:05;;;;;;;3.13;2.00;;;10.40;96.80;;;;;;4981909;28;20474;-78
2022/12/30 13:19:35;;;;;;;4.27;1.57;;;10.30;97.40;;;;;;4982292;28;20476;-78
2022/12/30 13:22:06;;;;;;;3.90;1.73;;;10.40;98.00;;;;;;4988816;28;20452;-78
2022/12/30 13:24:44;;;;;;;3.10;1.73;;;10.40;98.10;;;;;;4981840;28;20464;-78
2022/12/30 13:27:19;;;;;;;8.40;1.93;;;10.40;98.60;;;;;;4980591;28;20554;-78
2022/12/30 13:29:48;;;;;;;6.00;2.00;;;10.30;98.90;;;;;;4980704;28;20463;-78
2022/12/30 13:32:24;;;;;;;5.80;1.63;;;10.30;99.30;;;;;;4979378;28;20462;-78
2022/12/30 13:34:57;;;;;;;3.37;1.43;;;10.20;99.50;;;;;;4980321;28;20492;-78
2022/12/30 13:37:33;;;;;;;5.20;1.80;;;10.20;99.90;;;;;;4986011;28;20445;-78
2022/12/30 13:40:05;;;;;;;5.13;1.90;;;10.20;99.90;;;;;;4991929;28;20539;-78
2022/12/30 13:42:58;;;;;;;3.93;1.20;;;10.20;99.90;;;;;;4979412;28;20928;-78
2022/12/30 13:45:29;;;;;;;2.87;1.20;;;10.20;99.90;;;;;;4979445;28;20470;-78
2022/12/30 13:48:07;;;;;;;2.50;2.07;;;10.10;99.90;;;;;;4979808;28;20436;-79
2022/12/30 13:50:35;;;;;;;4.17;1.77;;;10.20;99.90;;;;;;4979580;28;20472;-79
2022/12/30 13:53:04;;;;;;;6.50;1.37;;;10.20;99.90;;;;;;4978975;28;20467;-79
2022/12/30 13:55:34;;;;;;;4.07;2.00;;;10.20;99.90;;;;;;4979753;28;20469;-78
2022/12/30 13:58:08;;;;;;;3.40;1.80;;;10.10;99.90;;;;;;4998356;28;20459;-78
2022/12/30 14:00:39;;;;;;;3.50;2.00;;;10.10;99.90;;;;;;4998314;28;20899;-79
2022/12/30 14:03:33;;;;;;;4.50;1.67;;;10.10;99.90;;;;;;4998453;28;20431;-79